KCXU

Camilla-Mitchell County Airport

Camilla, Georgia, USA
METAR KCXU 171635Z AUTO 00000KT 10SM SCT029 SCT034 BKN055 30/24 A3018 RMK AO1 T03000235
Observed Flight Rules
Aug-17 @ 16:35 UTC (16 minutes ago) Visual Flight Rules
Visibility Clouds
10 miles
  • Scattered at 2,900' AGL
  • Scattered at 3,400' AGL
  • Broken at 5,500' AGL
Temperatures Readings
Current 30°C / 86°F
Dewpoint 24°C / 75°F
Humidity 70%
Altimeter 30.18" Hg
Pressure 1022 hPa
Elevation 53
METAR KCXU 171635Z AUTO 00000KT 10SM SCT029 SCT034 BKN055 30/24 A3018 RMK AO1 T03000235
Observed Flight Rules
Aug-17 @ 16:35 UTC
(16 minutes ago)
VFR
Clouds
  • Scattered at 2,900' AGL
  • Scattered at 3,400' AGL
  • Broken at 5,500' AGL
Temperature Dewpoint
30°C / 86°F 24°C / 75°F
Humidity Altimeter Pressure
70% 30.18" Hg 1022 hPa